Time;durP1;ratioP1;P1;durP2;ratioP2;P2;SDS_P1;SDS_P2;PMS_P1;PMS_P2;Temp;Humidity;BMP_temperature;BMP_pressure;BME280_temperature;BME280_humidity;BME280_pressure;Samples;Min_cycle;Max_cycle;Signal;HPM_P1;HPM_P2
2022/10/20 00:02:00;;;;;;;5.53;2.78;;;;;;;;;;4986343;28;20488;-58
2022/10/20 00:04:25;;;;;;;3.95;2.40;;;;;;;;;;4985949;28;20439;-58
2022/10/20 00:06:50;;;;;;;4.00;2.70;;;;;;;;;;4981737;28;20025;-59
2022/10/20 00:09:15;;;;;;;2.53;2.20;;;;;;;;;;4982105;28;20038;-59
2022/10/20 00:11:41;;;;;;;3.00;2.13;;;;;;;;;;4981703;28;20512;-59
2022/10/20 00:14:07;;;;;;;3.33;2.80;;;;;;;;;;4986063;28;20088;-58
2022/10/20 00:16:34;;;;;;;2.83;2.30;;;;;;;;;;4985715;28;20393;-59
2022/10/20 00:18:59;;;;;;;3.67;2.53;;;;;;;;;;4984885;28;20397;-58
2022/10/20 00:21:27;;;;;;;4.68;2.35;;;;;;;;;;4984024;28;20069;-59
2022/10/20 00:23:52;;;;;;;2.42;2.20;;;;;;;;;;4985727;28;20156;-59
2022/10/20 00:26:18;;;;;;;4.55;2.40;;;;;;;;;;4981195;28;20026;-59
2022/10/20 00:28:44;;;;;;;6.72;2.55;;;;;;;;;;4981718;28;20030;-58
2022/10/20 00:31:19;;;;;;;3.00;2.47;;;;;;;;;;4985714;28;20515;-58
2022/10/20 00:33:44;;;;;;;3.15;2.45;;;;;;;;;;4985172;28;20077;-59
2022/10/20 00:36:11;;;;;;;3.50;2.22;;;;;;;;;;4985997;28;20034;-59
2022/10/20 00:38:37;;;;;;;2.75;2.55;;;;;;;;;;4985194;28;20030;-58
2022/10/20 00:41:02;;;;;;;2.15;1.88;;;;;;;;;;4984174;28;20560;-58
2022/10/20 00:44:05;;;;;;;3.63;2.50;;;;;;;;;;4981880;28;20112;-58
2022/10/20 00:49:34;;;;;;;2.33;2.13;;;;;;;;;;4978091;28;20046;-64
2022/10/20 00:52:03;;;;;;;3.53;2.47;;;;;;;;;;4984328;28;20101;-58
2022/10/20 00:54:28;;;;;;;3.20;2.60;;;;;;;;;;4983372;28;20048;-58
2022/10/20 00:56:54;;;;;;;5.88;2.25;;;;;;;;;;4981812;28;20034;-59
2022/10/20 00:59:21;;;;;;;4.50;2.25;;;;;;;;;;4984721;28;20506;-59
2022/10/20 01:01:47;;;;;;;4.70;2.53;;;;;;;;;;4982125;28;20678;-59
2022/10/20 01:04:12;;;;;;;4.60;2.72;;;;;;;;;;5018920;23;20072;-83
2022/10/20 01:06:38;;;;;;;6.25;2.63;;;;;;;;;;5029445;28;20275;-82
2022/10/20 01:09:03;;;;;;;3.15;2.20;;;;;;;;;;5072439;23;20025;-71
2022/10/20 01:11:32;;;;;;;4.35;2.40;;;;;;;;;;5022518;23;20115;-70
2022/10/20 01:14:03;;;;;;;6.47;2.67;;;;;;;;;;5020953;28;20025;-68
2022/10/20 01:16:37;;;;;;;4.20;2.72;;;;;;;;;;5021253;28;20029;-68
2022/10/20 01:19:17;;;;;;;3.72;2.20;;;;;;;;;;5023315;28;20065;-69
2022/10/20 01:21:43;;;;;;;3.03;2.72;;;;;;;;;;5024755;28;20464;-69
2022/10/20 01:30:39;;;;;;;3.30;3.00;;;;;;;;;;4957309;28;20913;-68
2022/10/20 01:39:11;;;;;;;3.20;2.80;;;;;;;;;;4957886;28;20060;-68
2022/10/20 01:57:47;;;;;;;3.20;2.88;;;;;;;;;;4827982;29;20036;-69
2022/10/20 02:03:24;;;;;;;3.03;2.83;;;;;;;;;;4815008;29;20469;-68
2022/10/20 02:28:12;;;;;;;4.50;2.90;;;;;;;;;;4566663;27;1583491;-68
2022/10/20 02:30:37;;;;;;;;;;;;;;;;;;5104585;28;20035;-73
2022/10/20 02:33:06;;;;;;;3.30;2.85;;;;;;;;;;5105321;28;19938;-69
2022/10/20 02:35:37;;;;;;;4.27;3.00;;;;;;;;;;5102045;28;20207;-68
2022/10/20 02:38:13;;;;;;;4.63;3.13;;;;;;;;;;5103089;28;20028;-67
2022/10/20 02:40:41;;;;;;;4.23;3.17;;;;;;;;;;5101261;28;20483;-68
2022/10/20 02:43:08;;;;;;;3.13;2.83;;;;;;;;;;5102030;28;20019;-67
2022/10/20 02:45:39;;;;;;;4.07;2.93;;;;;;;;;;5106340;27;20116;-68
2022/10/20 02:51:16;;;;;;;6.40;3.70;;;;;;;;;;5039357;28;20049;-68
2022/10/20 02:57:07;;;;;;;4.03;2.90;;;;;;;;;;5003635;28;20303;-66
2022/10/20 03:43:27;;;;;;;6.30;3.50;;;;;;;;;;3821923;29;23092;-66
2022/10/20 03:46:27;;;;;;;7.03;3.90;;;;;;;;;;4866451;29;20442;-65
2022/10/20 03:49:33;;;;;;;6.00;3.73;;;;;;;;;;4899150;29;20078;-65
2022/10/20 03:55:13;;;;;;;5.77;3.63;;;;;;;;;;4920458;29;20039;-64
2022/10/20 03:58:40;;;;;;;5.20;3.87;;;;;;;;;;4917551;29;20055;-65
2022/10/20 04:00:47;;;;;;;5.03;4.37;;;;;;;;;;4903642;29;20494;-64
2022/10/20 04:03:12;;;;;;;7.70;5.13;;;;;;;;;;4918680;29;20164;-64
2022/10/20 04:05:38;;;;;;;5.93;4.17;;;;;;;;;;4919453;29;20179;-66
2022/10/20 04:08:03;;;;;;;7.53;5.03;;;;;;;;;;4921644;29;20482;-64
2022/10/20 04:10:29;;;;;;;11.27;5.23;;;;;;;;;;4904756;29;20225;-66
2022/10/20 04:12:57;;;;;;;5.73;4.33;;;;;;;;;;4917503;29;20098;-65
2022/10/20 04:15:22;;;;;;;6.17;4.20;;;;;;;;;;4921991;29;20035;-68
2022/10/20 04:17:47;;;;;;;5.03;4.17;;;;;;;;;;4921357;29;20053;-66
2022/10/20 04:20:12;;;;;;;6.40;4.13;;;;;;;;;;4917746;29;20126;-66
2022/10/20 04:22:39;;;;;;;7.93;4.50;;;;;;;;;;4916909;29;20375;-66
2022/10/20 04:25:04;;;;;;;4.30;3.90;;;;;;;;;;4950359;28;20068;-66
2022/10/20 04:27:29;;;;;;;6.87;4.00;;;;;;;;;;4995927;28;20109;-66
2022/10/20 04:29:55;;;;;;;4.83;4.33;;;;;;;;;;4991930;28;20057;-66
2022/10/20 04:32:20;;;;;;;5.70;4.30;;;;;;;;;;5064664;28;20502;-66
2022/10/20 04:34:45;;;;;;;5.20;3.53;;;;;;;;;;5068369;28;20027;-66
2022/10/20 04:37:10;;;;;;;8.00;4.27;;;;;;;;;;5089292;28;20120;-67
2022/10/20 04:39:39;;;;;;;8.63;4.10;;;;;;;;;;5086094;28;20522;-66
2022/10/20 04:42:04;;;;;;;5.63;4.13;;;;;;;;;;5085668;28;20110;-65
2022/10/20 04:44:29;;;;;;;5.30;4.27;;;;;;;;;;5096358;27;20590;-67
2022/10/20 04:47:03;;;;;;;4.77;4.07;;;;;;;;;;5111327;27;20096;-65
2022/10/20 04:49:28;;;;;;;6.60;4.27;;;;;;;;;;5105209;27;20122;-66
2022/10/20 04:51:54;;;;;;;5.80;4.90;;;;;;;;;;5106405;27;20046;-66
2022/10/20 04:54:19;;;;;;;9.27;5.87;;;;;;;;;;5108381;27;20036;-65
2022/10/20 04:56:44;;;;;;;7.63;5.63;;;;;;;;;;5109155;27;20045;-66
2022/10/20 04:59:09;;;;;;;6.03;4.83;;;;;;;;;;5108759;27;20531;-66
2022/10/20 05:01:35;;;;;;;7.20;4.47;;;;;;;;;;5106603;27;20538;-64
2022/10/20 05:04:00;;;;;;;6.07;4.47;;;;;;;;;;5106184;27;20034;-64
2022/10/20 05:06:30;;;;;;;5.97;4.30;;;;;;;;;;5105370;27;20030;-66
2022/10/20 05:08:56;;;;;;;7.53;4.40;;;;;;;;;;5107576;27;20110;-66
2022/10/20 05:11:23;;;;;;;7.97;6.17;;;;;;;;;;5105165;27;20042;-65
2022/10/20 05:13:48;;;;;;;5.37;4.53;;;;;;;;;;5104301;27;20024;-67
2022/10/20 05:16:16;;;;;;;5.77;4.90;;;;;;;;;;5107149;27;20564;-65
2022/10/20 05:18:41;;;;;;;6.10;5.23;;;;;;;;;;5104988;27;20179;-67
2022/10/20 05:21:16;;;;;;;8.80;5.33;;;;;;;;;;5106723;27;20561;-69
2022/10/20 05:23:45;;;;;;;5.63;4.90;;;;;;;;;;5104808;27;20023;-65
2022/10/20 05:26:12;;;;;;;6.37;5.33;;;;;;;;;;5105333;27;20034;-64
2022/10/20 05:28:37;;;;;;;5.77;4.53;;;;;;;;;;5105175;27;20014;-65
2022/10/20 05:31:03;;;;;;;6.23;5.23;;;;;;;;;;5105485;27;20038;-66
2022/10/20 05:33:29;;;;;;;8.03;5.13;;;;;;;;;;5106923;27;20376;-65
2022/10/20 05:35:57;;;;;;;8.50;5.27;;;;;;;;;;5111117;27;20370;-65
2022/10/20 05:38:22;;;;;;;10.10;5.27;;;;;;;;;;5078682;28;20087;-66
2022/10/20 05:40:47;;;;;;;6.87;4.73;;;;;;;;;;5108889;27;20039;-65
2022/10/20 05:43:13;;;;;;;9.00;5.50;;;;;;;;;;5105206;27;20503;-67
2022/10/20 05:45:38;;;;;;;8.23;4.73;;;;;;;;;;5085482;27;20042;-64
2022/10/20 05:48:03;;;;;;;7.93;4.70;;;;;;;;;;5105260;27;20027;-65
2022/10/20 05:50:29;;;;;;;11.90;5.43;;;;;;;;;;5109551;27;20424;-65
2022/10/20 05:52:54;;;;;;;9.23;4.80;;;;;;;;;;5107270;27;20608;-68
2022/10/20 05:55:19;;;;;;;10.57;5.00;;;;;;;;;;5085591;27;20138;-68
2022/10/20 05:57:47;;;;;;;7.93;5.73;;;;;;;;;;5105797;27;20096;-67
2022/10/20 06:00:14;;;;;;;6.43;5.40;;;;;;;;;;5104002;27;20034;-64
2022/10/20 06:02:39;;;;;;;7.70;5.17;;;;;;;;;;5109338;27;20019;-67
2022/10/20 06:05:05;;;;;;;7.53;5.43;;;;;;;;;;5107473;27;20468;-67
2022/10/20 06:07:30;;;;;;;8.70;5.23;;;;;;;;;;5108855;27;20264;-66
2022/10/20 06:09:55;;;;;;;9.53;5.30;;;;;;;;;;5108667;27;20279;-63
2022/10/20 06:12:20;;;;;;;7.57;4.83;;;;;;;;;;5109129;27;20027;-72
2022/10/20 06:14:46;;;;;;;8.50;5.60;;;;;;;;;;5108393;27;20023;-72
2022/10/20 06:17:11;;;;;;;6.47;5.17;;;;;;;;;;5106588;27;20034;-69
2022/10/20 06:19:36;;;;;;;8.03;5.27;;;;;;;;;;5104390;28;20031;-73
2022/10/20 06:22:02;;;;;;;9.07;5.57;;;;;;;;;;5109051;28;20474;-71
2022/10/20 06:24:27;;;;;;;14.53;6.07;;;;;;;;;;5110314;28;20019;-70
2022/10/20 06:26:52;;;;;;;12.57;5.87;;;;;;;;;;5110147;27;20032;-69
2022/10/20 06:29:18;;;;;;;10.47;6.10;;;;;;;;;;5109161;28;20027;-68
2022/10/20 06:31:44;;;;;;;7.27;5.53;;;;;;;;;;5109764;28;20032;-70
2022/10/20 06:34:12;;;;;;;9.47;6.07;;;;;;;;;;5109145;28;20131;-70
2022/10/20 06:36:38;;;;;;;8.37;5.90;;;;;;;;;;5108011;27;20024;-69
2022/10/20 06:39:04;;;;;;;9.20;6.20;;;;;;;;;;5108312;28;20034;-70
2022/10/20 06:41:30;;;;;;;9.93;5.00;;;;;;;;;;5106615;28;20072;-72
2022/10/20 06:43:59;;;;;;;9.57;5.50;;;;;;;;;;5102025;27;20048;-70
2022/10/20 06:46:25;;;;;;;10.63;6.27;;;;;;;;;;5073575;28;20513;-71
2022/10/20 06:48:50;;;;;;;10.70;6.33;;;;;;;;;;5084618;28;20032;-69
2022/10/20 06:51:18;;;;;;;7.33;5.40;;;;;;;;;;5085828;28;20499;-69
2022/10/20 06:53:44;;;;;;;10.53;5.67;;;;;;;;;;5089719;28;20028;-67
2022/10/20 06:56:10;;;;;;;8.27;5.43;;;;;;;;;;5088665;28;20023;-68
2022/10/20 06:58:36;;;;;;;12.97;6.23;;;;;;;;;;5087170;28;20545;-69
2022/10/20 07:01:01;;;;;;;9.70;6.17;;;;;;;;;;5084701;28;20143;-71
2022/10/20 07:03:27;;;;;;;10.00;6.03;;;;;;;;;;5088671;28;20028;-71
2022/10/20 07:05:52;;;;;;;9.30;6.30;;;;;;;;;;5087582;28;20035;-69
2022/10/20 07:08:18;;;;;;;9.03;5.97;;;;;;;;;;5091532;28;20028;-70
2022/10/20 07:10:43;;;;;;;10.63;5.60;;;;;;;;;;5091811;28;20465;-68
2022/10/20 07:13:08;;;;;;;10.30;5.53;;;;;;;;;;5089471;28;20474;-70
2022/10/20 07:15:33;;;;;;;9.77;6.17;;;;;;;;;;5087400;28;20481;-70
2022/10/20 07:17:59;;;;;;;8.70;4.90;;;;;;;;;;5089961;28;20032;-71
2022/10/20 07:20:24;;;;;;;7.30;5.10;;;;;;;;;;5090127;28;20028;-68
2022/10/20 07:22:49;;;;;;;6.87;5.43;;;;;;;;;;5090812;28;20039;-66
2022/10/20 07:25:15;;;;;;;10.50;5.40;;;;;;;;;;5091993;28;20842;-69
2022/10/20 07:27:40;;;;;;;8.93;5.13;;;;;;;;;;5072939;28;20064;-71
2022/10/20 07:30:05;;;;;;;7.67;5.03;;;;;;;;;;5091811;28;20066;-66
2022/10/20 07:32:31;;;;;;;6.93;5.05;;;;;;;;;;5087907;28;20097;-72
2022/10/20 07:34:56;;;;;;;7.10;4.93;;;;;;;;;;5084971;27;20371;-68
2022/10/20 07:37:21;;;;;;;7.07;5.40;;;;;;;;;;5091154;28;20031;-68
2022/10/20 07:39:46;;;;;;;6.23;5.07;;;;;;;;;;5091092;28;20034;-65
2022/10/20 07:42:12;;;;;;;7.57;5.68;;;;;;;;;;5090968;28;20020;-70
2022/10/20 07:44:37;;;;;;;9.05;5.88;;;;;;;;;;5097735;27;20051;-68
2022/10/20 07:47:02;;;;;;;11.52;6.75;;;;;;;;;;5106451;27;20619;-68
2022/10/20 07:49:28;;;;;;;5.07;4.57;;;;;;;;;;5111871;27;20044;-67
2022/10/20 07:51:53;;;;;;;6.78;4.85;;;;;;;;;;5109906;27;20036;-65
2022/10/20 07:54:18;;;;;;;9.02;5.70;;;;;;;;;;5110460;27;20377;-68
2022/10/20 07:56:45;;;;;;;8.45;5.35;;;;;;;;;;5110583;27;20059;-67
2022/10/20 07:59:10;;;;;;;8.27;5.68;;;;;;;;;;5108852;27;20027;-68
2022/10/20 08:01:36;;;;;;;7.30;5.70;;;;;;;;;;5105736;27;20031;-66
2022/10/20 08:04:02;;;;;;;11.35;6.00;;;;;;;;;;5106745;27;20084;-67
2022/10/20 08:06:27;;;;;;;10.30;5.40;;;;;;;;;;5105026;27;20563;-67
2022/10/20 08:08:52;;;;;;;9.20;5.38;;;;;;;;;;5108360;27;20027;-65
2022/10/20 08:11:18;;;;;;;9.32;5.50;;;;;;;;;;5108503;27;20465;-67
2022/10/20 08:13:43;;;;;;;5.72;4.43;;;;;;;;;;5107589;27;20039;-66
2022/10/20 08:16:10;;;;;;;9.75;5.22;;;;;;;;;;5111327;27;20147;-68
2022/10/20 08:18:35;;;;;;;5.70;5.20;;;;;;;;;;5106681;27;20093;-67
2022/10/20 08:21:15;;;;;;;6.35;4.72;;;;;;;;;;5106704;27;20047;-68
2022/10/20 08:23:41;;;;;;;6.55;4.63;;;;;;;;;;5108836;27;20120;-65
2022/10/20 08:26:06;;;;;;;7.00;4.80;;;;;;;;;;5107308;27;20497;-64
2022/10/20 08:28:32;;;;;;;4.85;4.22;;;;;;;;;;5107753;27;20149;-64
2022/10/20 08:30:57;;;;;;;4.65;4.15;;;;;;;;;;5098927;27;20188;-68
2022/10/20 08:33:23;;;;;;;6.70;4.90;;;;;;;;;;5106167;27;20053;-66
2022/10/20 08:35:48;;;;;;;6.85;4.15;;;;;;;;;;5109372;27;20070;-67
2022/10/20 08:38:13;;;;;;;5.63;4.05;;;;;;;;;;5110420;27;20110;-68
2022/10/20 08:40:40;;;;;;;6.82;4.18;;;;;;;;;;5110316;27;20078;-65
2022/10/20 08:43:06;;;;;;;4.82;4.43;;;;;;;;;;5093390;27;20028;-67
2022/10/20 08:45:31;;;;;;;5.75;4.15;;;;;;;;;;5105415;27;20047;-69
2022/10/20 08:47:57;;;;;;;7.95;3.85;;;;;;;;;;5107651;27;20448;-69
2022/10/20 08:50:26;;;;;;;4.97;3.95;;;;;;;;;;5110154;27;20426;-69
2022/10/20 08:52:53;;;;;;;8.27;4.13;;;;;;;;;;5109537;27;20024;-69
2022/10/20 08:55:18;;;;;;;9.15;4.90;;;;;;;;;;5107909;27;20023;-66
2022/10/20 08:57:46;;;;;;;5.93;4.07;;;;;;;;;;5105965;27;20538;-68
2022/10/20 09:00:19;;;;;;;6.57;4.82;;;;;;;;;;5104867;27;20508;-67
2022/10/20 09:02:45;;;;;;;5.25;4.13;;;;;;;;;;5105166;27;20035;-68
2022/10/20 09:05:12;;;;;;;4.82;3.67;;;;;;;;;;5105645;27;20068;-64
2022/10/20 09:07:38;;;;;;;5.75;4.40;;;;;;;;;;5106252;27;20099;-67
2022/10/20 09:10:10;;;;;;;7.75;4.43;;;;;;;;;;5109024;27;20027;-66
2022/10/20 09:12:37;;;;;;;5.53;4.10;;;;;;;;;;5112251;27;20143;-67
2022/10/20 09:15:03;;;;;;;5.82;4.85;;;;;;;;;;5111039;27;20031;-67
2022/10/20 09:17:28;;;;;;;6.63;4.20;;;;;;;;;;5111151;27;20030;-68
2022/10/20 09:19:55;;;;;;;8.88;4.30;;;;;;;;;;5108746;27;20027;-67
2022/10/20 09:22:21;;;;;;;5.03;4.60;;;;;;;;;;5108733;27;20051;-65
2022/10/20 09:24:47;;;;;;;6.68;4.55;;;;;;;;;;5104966;27;20111;-67
2022/10/20 09:27:43;;;;;;;5.63;4.28;;;;;;;;;;5104240;27;20027;-67
2022/10/20 09:30:16;;;;;;;4.90;4.40;;;;;;;;;;5080797;27;20077;-66
2022/10/20 09:32:41;;;;;;;10.15;4.05;;;;;;;;;;5106023;27;20113;-67
2022/10/20 09:35:27;;;;;;;6.38;4.05;;;;;;;;;;5106602;27;20461;-67
2022/10/20 09:37:55;;;;;;;6.10;5.00;;;;;;;;;;5105404;27;20023;-68
2022/10/20 09:40:21;;;;;;;8.50;4.78;;;;;;;;;;5104686;27;20035;-63
2022/10/20 09:42:52;;;;;;;5.30;3.80;;;;;;;;;;5109491;27;20061;-68
2022/10/20 09:45:28;;;;;;;4.95;4.18;;;;;;;;;;5105436;27;20046;-61
2022/10/20 09:47:57;;;;;;;4.65;3.92;;;;;;;;;;5104552;27;20026;-64
2022/10/20 09:50:26;;;;;;;5.43;4.10;;;;;;;;;;5104613;27;20027;-55
2022/10/20 09:52:51;;;;;;;5.40;4.90;;;;;;;;;;5108940;27;20027;-57
2022/10/20 09:55:36;;;;;;;5.30;4.32;;;;;;;;;;5107416;27;20023;-57
2022/10/20 09:58:02;;;;;;;5.80;4.30;;;;;;;;;;5106659;27;20907;-56
2022/10/20 10:00:42;;;;;;;7.53;4.15;;;;;;;;;;5109485;27;20290;-55
2022/10/20 10:03:21;;;;;;;5.38;4.57;;;;;;;;;;5110179;27;20023;-58
2022/10/20 10:05:51;;;;;;;5.32;3.65;;;;;;;;;;5104231;27;20023;-60
2022/10/20 10:08:17;;;;;;;3.90;3.55;;;;;;;;;;5108153;27;20035;-59
2022/10/20 10:10:43;;;;;;;10.00;5.45;;;;;;;;;;5101782;28;20020;-62
2022/10/20 10:13:19;;;;;;;4.80;4.38;;;;;;;;;;5104553;27;20023;-59
2022/10/20 10:15:45;;;;;;;5.22;4.05;;;;;;;;;;5106370;27;20032;-59
2022/10/20 10:18:11;;;;;;;10.98;4.50;;;;;;;;;;5108778;27;20372;-59
2022/10/20 10:20:38;;;;;;;4.45;3.80;;;;;;;;;;5108870;27;20432;-60
2022/10/20 10:23:20;;;;;;;6.07;4.47;;;;;;;;;;5108927;27;20593;-59
2022/10/20 10:25:46;;;;;;;7.38;4.63;;;;;;;;;;5104802;28;20605;-59
2022/10/20 10:28:19;;;;;;;8.57;5.38;;;;;;;;;;5104215;28;20027;-62
2022/10/20 10:30:44;;;;;;;4.85;4.45;;;;;;;;;;5090526;28;20552;-58
2022/10/20 10:33:31;;;;;;;8.35;5.13;;;;;;;;;;5109027;28;20030;-59
2022/10/20 10:35:57;;;;;;;5.43;4.75;;;;;;;;;;5104930;28;20461;-58
2022/10/20 10:38:23;;;;;;;9.80;5.60;;;;;;;;;;5107569;28;20140;-59
2022/10/20 10:40:51;;;;;;;6.25;4.82;;;;;;;;;;5109699;27;20070;-61
2022/10/20 10:43:30;;;;;;;7.88;5.72;;;;;;;;;;5108728;27;20027;-59
2022/10/20 10:45:57;;;;;;;6.68;5.40;;;;;;;;;;5108694;27;20031;-59
2022/10/20 10:48:44;;;;;;;7.20;4.63;;;;;;;;;;5109626;27;20080;-59
2022/10/20 10:51:16;;;;;;;5.50;4.68;;;;;;;;;;5090927;27;20092;-59
2022/10/20 10:54:01;;;;;;;7.85;4.85;;;;;;;;;;5112591;27;20027;-60
2022/10/20 10:56:47;;;;;;;5.95;5.45;;;;;;;;;;5059274;27;20042;-61
2022/10/20 10:59:15;;;;;;;5.15;4.65;;;;;;;;;;5111486;27;20042;-60
2022/10/20 11:01:46;;;;;;;4.78;4.38;;;;;;;;;;5109008;27;20031;-60
2022/10/20 11:04:14;;;;;;;4.18;3.65;;;;;;;;;;5107982;27;20378;-59
2022/10/20 11:06:55;;;;;;;5.03;4.53;;;;;;;;;;5109574;27;20043;-60
2022/10/20 11:09:28;;;;;;;5.07;4.60;;;;;;;;;;5102860;27;20027;-59
2022/10/20 11:11:56;;;;;;;6.05;4.68;;;;;;;;;;5112458;27;20062;-60
2022/10/20 11:14:29;;;;;;;5.40;4.38;;;;;;;;;;5110827;27;20151;-59
2022/10/20 11:17:02;;;;;;;5.22;3.55;;;;;;;;;;5111775;27;20027;-60
2022/10/20 11:19:30;;;;;;;5.47;4.15;;;;;;;;;;5111092;27;20019;-58
2022/10/20 11:22:10;;;;;;;4.78;3.97;;;;;;;;;;5112295;27;20410;-59
2022/10/20 11:24:54;;;;;;;8.80;3.85;;;;;;;;;;5109457;27;20111;-59
2022/10/20 11:27:23;;;;;;;4.60;4.13;;;;;;;;;;5108367;27;20019;-59
2022/10/20 11:29:49;;;;;;;5.25;3.63;;;;;;;;;;5112042;27;20033;-60
2022/10/20 11:32:19;;;;;;;4.80;4.20;;;;;;;;;;5111431;27;20448;-59
2022/10/20 11:35:02;;;;;;;5.50;3.40;;;;;;;;;;5112454;27;20126;-59
2022/10/20 11:37:29;;;;;;;9.82;4.18;;;;;;;;;;5111160;27;20106;-59
2022/10/20 11:40:01;;;;;;;5.05;3.95;;;;;;;;;;5111289;27;20039;-60
2022/10/20 11:42:41;;;;;;;3.92;3.60;;;;;;;;;;5108975;27;20251;-59
2022/10/20 11:45:30;;;;;;;7.47;3.30;;;;;;;;;;5106789;27;20051;-60
2022/10/20 11:48:00;;;;;;;4.28;3.28;;;;;;;;;;5102439;27;20043;-60
2022/10/20 11:50:25;;;;;;;5.50;3.47;;;;;;;;;;5105380;27;20027;-60
2022/10/20 11:53:05;;;;;;;5.53;4.55;;;;;;;;;;5105995;27;20023;-60
2022/10/20 11:55:38;;;;;;;5.13;3.70;;;;;;;;;;5107106;27;20023;-59
2022/10/20 11:58:22;;;;;;;6.43;4.05;;;;;;;;;;5111508;27;20146;-66
2022/10/20 12:01:04;;;;;;;7.55;4.75;;;;;;;;;;5108559;27;20061;-60
2022/10/20 12:03:41;;;;;;;4.78;4.05;;;;;;;;;;5106118;27;20031;-62
2022/10/20 12:06:12;;;;;;;6.43;4.10;;;;;;;;;;5107531;27;20053;-61
2022/10/20 12:08:47;;;;;;;6.70;3.72;;;;;;;;;;5105295;27;20603;-61
2022/10/20 12:11:31;;;;;;;3.67;3.38;;;;;;;;;;5107033;27;20035;-61
2022/10/20 12:13:57;;;;;;;4.75;4.25;;;;;;;;;;5106868;27;20035;-61
2022/10/20 12:16:41;;;;;;;5.60;3.85;;;;;;;;;;5104783;27;20441;-61
2022/10/20 12:19:14;;;;;;;4.38;3.97;;;;;;;;;;5108493;27;20503;-60
2022/10/20 12:21:52;;;;;;;5.65;4.15;;;;;;;;;;5101125;27;20567;-61
2022/10/20 12:24:37;;;;;;;5.55;4.43;;;;;;;;;;5105944;27;20110;-60
2022/10/20 12:27:02;;;;;;;3.92;3.45;;;;;;;;;;5109753;27;20082;-63
2022/10/20 12:29:31;;;;;;;6.68;3.90;;;;;;;;;;5109073;27;20514;-60
2022/10/20 12:32:15;;;;;;;5.03;3.97;;;;;;;;;;5108155;27;20036;-60
2022/10/20 12:34:40;;;;;;;5.60;4.22;;;;;;;;;;5110337;27;20034;-60
2022/10/20 12:37:26;;;;;;;4.72;4.30;;;;;;;;;;5110296;27;20016;-60
2022/10/20 12:39:51;;;;;;;;;;;;;;;;;;5110212;27;20500;-62
2022/10/20 12:42:26;;;;;;;7.32;5.35;;;;;;;;;;5108509;27;20354;-60
2022/10/20 12:44:51;;;;;;;;;;;;;;;;;;5107059;27;20047;-59
2022/10/20 12:47:18;;;;;;;6.32;3.92;;;;;;;;;;5109772;27;20425;-59
2022/10/20 12:49:51;;;;;;;8.80;4.57;;;;;;;;;;5106430;27;20063;-60
2022/10/20 12:52:22;;;;;;;9.25;4.68;;;;;;;;;;5105608;27;20471;-61
2022/10/20 12:54:52;;;;;;;5.32;4.57;;;;;;;;;;5109238;27;20092;-61
2022/10/20 12:57:40;;;;;;;6.18;4.60;;;;;;;;;;5108186;27;20019;-61
2022/10/20 13:00:26;;;;;;;8.93;6.00;;;;;;;;;;5106451;27;20023;-62
2022/10/20 13:02:51;;;;;;;;;;;;;;;;;;5055061;27;20446;-65
2022/10/20 13:05:16;;;;;;;5.82;5.10;;;;;;;;;;5108064;27;19912;-61
2022/10/20 13:08:04;;;;;;;3.95;3.53;;;;;;;;;;5091350;27;20023;-61
2022/10/20 13:10:31;;;;;;;5.85;3.85;;;;;;;;;;5095330;27;20050;-61
2022/10/20 13:13:00;;;;;;;4.03;3.63;;;;;;;;;;5103368;27;20499;-60
2022/10/20 13:15:26;;;;;;;3.92;3.58;;;;;;;;;;5105472;27;20595;-53
2022/10/20 13:17:59;;;;;;;4.10;3.38;;;;;;;;;;5107437;27;20047;-56
2022/10/20 13:20:24;;;;;;;12.57;4.05;;;;;;;;;;5104717;27;20092;-60
2022/10/20 13:22:50;;;;;;;8.32;4.10;;;;;;;;;;5107938;27;20024;-64
2022/10/20 13:25:30;;;;;;;7.13;4.10;;;;;;;;;;5095998;27;20031;-68
2022/10/20 13:28:21;;;;;;;4.00;3.60;;;;;;;;;;5104492;27;20052;-61
2022/10/20 13:30:46;;;;;;;4.60;4.20;;;;;;;;;;5103134;27;20073;-61
2022/10/20 13:33:17;;;;;;;3.65;3.35;;;;;;;;;;5108580;27;20110;-61
2022/10/20 13:35:54;;;;;;;5.25;3.53;;;;;;;;;;5109703;27;20108;-61
2022/10/20 13:38:25;;;;;;;6.55;3.67;;;;;;;;;;5109850;27;20024;-61
2022/10/20 13:41:12;;;;;;;3.80;3.17;;;;;;;;;;5104830;27;20035;-61
2022/10/20 13:43:51;;;;;;;5.25;3.10;;;;;;;;;;5104032;27;20077;-60
2022/10/20 13:46:22;;;;;;;4.40;3.58;;;;;;;;;;5107824;27;20283;-61
2022/10/20 13:49:07;;;;;;;5.00;3.55;;;;;;;;;;5108381;27;20031;-61
2022/10/20 13:51:42;;;;;;;5.68;3.80;;;;;;;;;;5104871;27;20023;-60
2022/10/20 13:54:14;;;;;;;5.05;3.17;;;;;;;;;;5106953;27;20139;-62
2022/10/20 13:56:45;;;;;;;4.25;3.42;;;;;;;;;;5109479;27;20027;-62
2022/10/20 13:59:13;;;;;;;6.32;3.75;;;;;;;;;;5106573;27;20032;-61
2022/10/20 14:01:39;;;;;;;3.70;3.40;;;;;;;;;;5105978;27;20039;-61
2022/10/20 14:04:21;;;;;;;4.68;3.75;;;;;;;;;;5106532;27;20034;-56
2022/10/20 14:06:47;;;;;;;7.85;3.45;;;;;;;;;;5107061;27;20022;-61
2022/10/20 14:09:16;;;;;;;4.75;3.30;;;;;;;;;;5110417;27;20509;-60
2022/10/20 14:11:43;;;;;;;3.92;3.03;;;;;;;;;;5108672;27;20078;-61
2022/10/20 14:14:12;;;;;;;4.93;3.38;;;;;;;;;;5106773;27;20092;-59
2022/10/20 14:16:38;;;;;;;5.40;3.42;;;;;;;;;;5088308;27;20522;-59
2022/10/20 14:19:11;;;;;;;4.85;3.88;;;;;;;;;;5107699;27;20478;-59
2022/10/20 14:21:40;;;;;;;8.77;3.85;;;;;;;;;;5104281;27;20027;-60
2022/10/20 14:24:11;;;;;;;4.90;3.88;;;;;;;;;;5106386;28;20405;-59
2022/10/20 14:26:36;;;;;;;6.90;3.80;;;;;;;;;;5090380;28;20299;-59
2022/10/20 14:29:02;;;;;;;4.50;3.85;;;;;;;;;;5105402;28;20024;-62
2022/10/20 14:31:27;;;;;;;4.70;4.13;;;;;;;;;;5104233;28;20028;-61
2022/10/20 14:33:52;;;;;;;5.18;4.00;;;;;;;;;;5102386;27;20027;-61
2022/10/20 14:36:18;;;;;;;5.50;3.28;;;;;;;;;;5100914;27;20054;-59
2022/10/20 14:38:44;;;;;;;3.95;3.60;;;;;;;;;;5106637;28;20414;-61
2022/10/20 14:41:10;;;;;;;6.03;4.00;;;;;;;;;;5104848;27;20388;-60
2022/10/20 14:43:38;;;;;;;4.45;4.07;;;;;;;;;;5102420;28;20051;-60
2022/10/20 14:46:04;;;;;;;4.88;4.00;;;;;;;;;;5103515;27;20027;-60
2022/10/20 14:48:32;;;;;;;5.53;3.85;;;;;;;;;;5106998;28;20084;-60
2022/10/20 14:50:57;;;;;;;5.25;4.75;;;;;;;;;;5106739;28;20100;-61
2022/10/20 14:53:26;;;;;;;5.07;4.07;;;;;;;;;;5104982;28;20028;-60
2022/10/20 14:55:51;;;;;;;6.53;3.65;;;;;;;;;;5104724;27;20020;-59
2022/10/20 14:58:28;;;;;;;7.80;4.38;;;;;;;;;;5102608;28;20035;-61
2022/10/20 15:01:12;;;;;;;7.50;4.03;;;;;;;;;;5108452;28;20039;-60
2022/10/20 15:03:38;;;;;;;4.28;3.90;;;;;;;;;;5105015;28;20029;-61
2022/10/20 15:06:03;;;;;;;4.25;3.45;;;;;;;;;;5092726;28;20274;-60
2022/10/20 15:08:28;;;;;;;5.75;3.95;;;;;;;;;;5106975;27;20054;-61
2022/10/20 15:10:54;;;;;;;5.50;4.20;;;;;;;;;;5107122;28;20104;-60
2022/10/20 15:13:23;;;;;;;6.13;3.63;;;;;;;;;;5103272;28;20786;-61
2022/10/20 15:15:49;;;;;;;5.43;4.28;;;;;;;;;;5073264;28;20566;-60
2022/10/20 15:18:17;;;;;;;5.85;4.20;;;;;;;;;;5103648;28;20154;-61
2022/10/20 17:47:07;;;;;;;6.82;4.65;;;;;;;;;;3669039;27;20150;-59
2022/10/20 17:49:34;;;;;;;7.18;4.70;;;;;;;;;;5104977;27;20035;-58
2022/10/20 17:52:01;;;;;;;6.55;5.55;;;;;;;;;;5106665;27;20030;-59
2022/10/20 17:54:26;;;;;;;7.82;5.15;;;;;;;;;;5109205;27;20381;-57
2022/10/20 17:56:53;;;;;;;7.82;4.72;;;;;;;;;;5109380;27;20278;-60
2022/10/20 17:59:19;;;;;;;5.90;4.47;;;;;;;;;;5105556;27;20036;-60
2022/10/20 18:01:46;;;;;;;7.30;5.72;;;;;;;;;;5088952;27;20047;-59
2022/10/20 18:04:15;;;;;;;5.90;4.22;;;;;;;;;;5108712;27;20035;-60
2022/10/20 18:06:41;;;;;;;5.20;4.32;;;;;;;;;;5111184;27;20365;-59
2022/10/20 18:09:14;;;;;;;6.25;4.80;;;;;;;;;;5110067;27;20019;-60
2022/10/20 18:11:42;;;;;;;4.93;4.45;;;;;;;;;;5111073;27;20032;-59
2022/10/20 18:14:08;;;;;;;6.25;4.38;;;;;;;;;;5109278;27;20495;-59
2022/10/20 18:16:35;;;;;;;6.80;5.05;;;;;;;;;;5104419;27;20035;-59
2022/10/20 18:19:01;;;;;;;6.30;4.95;;;;;;;;;;5109082;27;20050;-60
2022/10/20 18:21:28;;;;;;;7.55;4.93;;;;;;;;;;5110335;27;20036;-59
2022/10/20 18:23:57;;;;;;;6.57;5.25;;;;;;;;;;5109308;28;20126;-60
2022/10/20 18:26:23;;;;;;;8.90;4.75;;;;;;;;;;5108718;28;20019;-61
2022/10/20 18:28:49;;;;;;;5.22;4.72;;;;;;;;;;5110624;28;20035;-60
2022/10/20 18:31:17;;;;;;;7.10;5.80;;;;;;;;;;5109452;27;20489;-63
2022/10/20 18:33:43;;;;;;;6.32;4.80;;;;;;;;;;5111287;28;20520;-61
2022/10/20 18:36:10;;;;;;;7.25;4.55;;;;;;;;;;5111566;28;20110;-60
2022/10/20 18:38:40;;;;;;;6.05;4.80;;;;;;;;;;5109655;28;20349;-59
2022/10/20 18:41:07;;;;;;;7.55;4.70;;;;;;;;;;5110384;28;20080;-60
2022/10/20 18:43:32;;;;;;;7.82;5.15;;;;;;;;;;5109350;27;20023;-62
2022/10/20 18:45:59;;;;;;;5.95;4.55;;;;;;;;;;5075876;28;20031;-59
2022/10/20 18:48:25;;;;;;;6.82;4.50;;;;;;;;;;5110041;27;20051;-59
2022/10/20 18:50:52;;;;;;;6.20;5.18;;;;;;;;;;5109712;28;20035;-59
2022/10/20 18:53:18;;;;;;;6.32;4.47;;;;;;;;;;5110483;28;20781;-59
2022/10/20 18:55:45;;;;;;;8.25;5.03;;;;;;;;;;5109548;27;20035;-60
2022/10/20 18:58:11;;;;;;;7.85;4.68;;;;;;;;;;5105815;28;20032;-61
2022/10/20 19:00:36;;;;;;;7.25;5.30;;;;;;;;;;5110483;28;20023;-60
2022/10/20 19:03:06;;;;;;;6.53;4.72;;;;;;;;;;5109561;27;20823;-59
2022/10/20 19:05:35;;;;;;;9.27;5.88;;;;;;;;;;5114677;27;20034;-60
2022/10/20 19:08:01;;;;;;;5.70;5.20;;;;;;;;;;5097755;27;20020;-59
2022/10/20 19:10:26;;;;;;;8.35;6.22;;;;;;;;;;5114702;27;20355;-58
2022/10/20 19:12:52;;;;;;;6.75;5.32;;;;;;;;;;5114568;27;20551;-60